Time;durP1;ratioP1;P1;durP2;ratioP2;P2;SDS_P1;SDS_P2;PMS_P1;PMS_P2;Temp;Humidity;BMP_temperature;BMP_pressure;BME280_temperature;BME280_humidity;BME280_pressure;Samples;Min_cycle;Max_cycle;Signal;HPM_P1;HPM_P2
2022/04/02 00:01:44;;;;;;;0.00;0.00;;;4.10;92.00;;;;;;4166159;28;20045;-70
2022/04/02 00:04:08;;;;;;;0.00;0.00;;;4.10;92.00;;;;;;4152644;28;20076;-72
2022/04/02 00:06:32;;;;;;;0.00;0.00;;;4.10;91.90;;;;;;4180090;28;20534;-70
2022/04/02 00:08:59;;;;;;;0.00;0.00;;;4.10;91.90;;;;;;4152499;28;20510;-69
2022/04/02 00:11:21;;;;;;;0.00;0.00;;;3.90;91.90;;;;;;4166533;28;20114;-70
2022/04/02 00:13:45;;;;;;;0.00;0.00;;;3.80;92.20;;;;;;4152608;28;20049;-72
2022/04/02 00:16:07;;;;;;;0.00;0.00;;;3.80;92.10;;;;;;4180083;28;20801;-70
2022/04/02 00:18:29;;;;;;;0.00;0.00;;;3.90;92.20;;;;;;4152624;28;20372;-69
2022/04/02 00:20:54;;;;;;;0.00;0.00;;;3.80;92.00;;;;;;4179594;28;20084;-70
2022/04/02 00:26:01;;;;;;;0.00;0.00;;;3.70;92.10;;;;;;4180016;28;20132;-70
2022/04/02 00:28:29;;;;;;;0.00;0.00;;;3.70;92.10;;;;;;4165981;28;20067;-69
2022/04/02 00:30:51;;;;;;;0.00;0.00;;;3.80;92.00;;;;;;4169008;28;20084;-71
2022/04/02 00:33:13;;;;;;;0.00;0.00;;;3.90;91.80;;;;;;4183317;28;20059;-68
2022/04/02 00:35:39;;;;;;;0.00;0.00;;;3.90;91.90;;;;;;4169637;28;20132;-69
2022/04/02 00:38:02;;;;;;;0.00;0.00;;;3.90;91.70;;;;;;4142082;28;20054;-70
2022/04/02 00:40:28;;;;;;;0.00;0.00;;;3.90;91.70;;;;;;4168977;28;20053;-74
2022/04/02 00:42:51;;;;;;;0.00;0.00;;;4.10;91.50;;;;;;4155020;28;20058;-70
2022/04/02 00:45:15;;;;;;;0.00;0.00;;;4.00;91.20;;;;;;4155358;28;20391;-70
2022/04/02 00:47:40;;;;;;;0.00;0.00;;;4.00;91.50;;;;;;4168907;28;20057;-69
2022/04/02 00:50:02;;;;;;;0.00;0.00;;;4.10;91.40;;;;;;4169079;28;20384;-68
2022/04/02 00:52:25;;;;;;;0.00;0.00;;;4.10;91.40;;;;;;4169084;28;20052;-71
2022/04/02 00:54:54;;;;;;;0.00;0.00;;;4.00;91.40;;;;;;4168364;28;20120;-72
2022/04/02 00:57:16;;;;;;;0.00;0.00;;;3.90;91.50;;;;;;4182367;28;20051;-72
2022/04/02 00:59:43;;;;;;;0.00;0.00;;;3.90;91.60;;;;;;4168755;28;20065;-72
2022/04/02 01:02:05;;;;;;;0.00;0.00;;;4.00;91.20;;;;;;4169016;28;20041;-70
2022/04/02 01:04:28;;;;;;;0.00;0.00;;;4.00;91.50;;;;;;4155126;28;20111;-69
2022/04/02 01:06:54;;;;;;;0.00;0.00;;;4.00;91.10;;;;;;4168298;28;20119;-72
2022/04/02 01:09:19;;;;;;;0.00;0.00;;;4.00;91.10;;;;;;4182521;28;20056;-69
2022/04/02 01:11:48;;;;;;;0.00;0.00;;;3.90;91.10;;;;;;4155548;28;20399;-70
2022/04/02 01:14:14;;;;;;;0.00;0.00;;;3.80;91.30;;;;;;4154895;28;20049;-70
2022/04/02 01:16:40;;;;;;;0.00;0.00;;;3.70;91.30;;;;;;4168176;28;20140;-71
2022/04/02 01:19:11;;;;;;;0.00;0.00;;;3.80;91.50;;;;;;4154873;28;20472;-69
2022/04/02 01:21:34;;;;;;;0.00;0.00;;;3.90;91.30;;;;;;4168613;28;20061;-70
2022/04/02 01:24:13;;;;;;;0.00;0.00;;;3.90;91.40;;;;;;4168347;28;20060;-70
2022/04/02 01:26:35;;;;;;;0.00;0.00;;;4.00;91.10;;;;;;4182200;28;20422;-71
2022/04/02 01:29:07;;;;;;;0.00;0.00;;;4.10;90.90;;;;;;4154199;28;20046;-71
2022/04/02 01:31:36;;;;;;;0.00;0.00;;;3.90;90.90;;;;;;4141983;28;20077;-70
2022/04/02 01:34:03;;;;;;;0.00;0.00;;;4.00;91.20;;;;;;4154808;28;20080;-70
2022/04/02 01:36:27;;;;;;;0.00;0.00;;;3.80;91.20;;;;;;4168310;28;20073;-71
2022/04/02 01:39:01;;;;;;;0.00;0.00;;;3.60;91.40;;;;;;4142021;28;20064;-72
2022/04/02 01:41:24;;;;;;;0.00;0.00;;;3.60;91.70;;;;;;4181641;28;20467;-70
2022/04/02 01:43:48;;;;;;;0.00;0.00;;;3.50;91.80;;;;;;4168164;28;20051;-69
2022/04/02 01:46:11;;;;;;;0.00;0.00;;;3.40;91.80;;;;;;4168350;28;20054;-71
2022/04/02 01:48:34;;;;;;;0.00;0.00;;;3.50;92.10;;;;;;4168229;28;20444;-68
2022/04/02 01:51:00;;;;;;;0.00;0.00;;;3.50;91.80;;;;;;4167921;28;20132;-69
2022/04/02 01:53:25;;;;;;;0.00;0.00;;;3.50;92.10;;;;;;4154446;28;20252;-72
2022/04/02 01:55:50;;;;;;;0.00;0.00;;;3.60;92.00;;;;;;4181670;28;20048;-72
2022/04/02 01:58:29;;;;;;;0.00;0.00;;;3.50;91.90;;;;;;4181903;28;20056;-71
2022/04/02 02:00:56;;;;;;;0.00;0.00;;;3.50;92.10;;;;;;4181346;28;20053;-72
2022/04/02 02:03:19;;;;;;;0.00;0.00;;;3.50;91.70;;;;;;4154465;28;20053;-70
2022/04/02 02:05:42;;;;;;;0.00;0.00;;;3.40;91.90;;;;;;4154405;28;20092;-69
2022/04/02 02:08:04;;;;;;;0.00;0.00;;;3.40;91.90;;;;;;4167952;28;20038;-69
2022/04/02 02:10:35;;;;;;;0.00;0.00;;;3.50;91.80;;;;;;4167742;28;20052;-70
2022/04/02 02:13:08;;;;;;;0.00;0.00;;;3.50;91.60;;;;;;4153543;28;20049;-70
2022/04/02 02:15:36;;;;;;;0.00;0.00;;;3.50;91.90;;;;;;4167596;28;20088;-71
2022/04/02 02:18:01;;;;;;;0.00;0.00;;;3.40;91.90;;;;;;4167972;28;20087;-71
2022/04/02 02:20:29;;;;;;;0.00;0.00;;;3.40;92.00;;;;;;4153803;28;20062;-71
2022/04/02 02:22:51;;;;;;;0.00;0.00;;;3.50;92.10;;;;;;4149940;28;20053;-70
2022/04/02 02:25:16;;;;;;;0.00;0.00;;;3.50;92.10;;;;;;4137656;28;20085;-72
2022/04/02 02:27:42;;;;;;;0.00;0.00;;;3.40;92.00;;;;;;4165009;28;20450;-70
2022/04/02 02:30:11;;;;;;;0.00;0.00;;;3.40;92.00;;;;;;4137486;28;20046;-69
2022/04/02 02:32:36;;;;;;;0.00;0.00;;;3.40;92.00;;;;;;4150892;28;20046;-70
2022/04/02 02:37:45;;;;;;;0.00;0.00;;;3.30;92.00;;;;;;4164898;28;20618;-70
2022/04/02 02:40:12;;;;;;;0.00;0.00;;;3.30;91.80;;;;;;4164699;28;20156;-72
2022/04/02 02:42:34;;;;;;;0.00;0.00;;;3.20;91.80;;;;;;4151058;28;20338;-72
2022/04/02 02:45:12;;;;;;;0.00;0.00;;;3.20;92.00;;;;;;4136758;28;20236;-69
2022/04/02 02:47:36;;;;;;;0.00;0.00;;;3.30;91.90;;;;;;4137216;28;20053;-74
2022/04/02 02:50:00;;;;;;;0.00;0.00;;;3.30;91.90;;;;;;4123708;28;20461;-70
2022/04/02 02:52:32;;;;;;;0.00;0.00;;;3.30;91.90;;;;;;4136428;28;20050;-69
2022/04/02 02:54:55;;;;;;;0.00;0.00;;;3.20;91.80;;;;;;4136717;28;20046;-70
2022/04/02 02:57:17;;;;;;;0.00;0.00;;;3.20;91.90;;;;;;4136943;28;20150;-70
2022/04/02 02:59:44;;;;;;;0.00;0.00;;;3.30;92.00;;;;;;4150534;28;20136;-68
2022/04/02 03:02:12;;;;;;;0.00;0.00;;;3.30;92.00;;;;;;4150329;28;20133;-69
2022/04/02 03:04:42;;;;;;;0.00;0.00;;;3.40;91.90;;;;;;4136858;28;20054;-70
2022/04/02 03:07:12;;;;;;;0.00;0.00;;;3.30;92.00;;;;;;4137054;28;20484;-71
2022/04/02 03:09:37;;;;;;;0.00;0.00;;;3.40;91.90;;;;;;4136781;28;20116;-72
2022/04/02 03:12:00;;;;;;;0.00;0.00;;;3.40;91.90;;;;;;4150541;28;20065;-69
2022/04/02 03:14:27;;;;;;;0.00;0.00;;;3.40;92.00;;;;;;4136918;28;20034;-68
2022/04/02 03:16:49;;;;;;;0.00;0.00;;;3.50;92.00;;;;;;4149950;28;20045;-71
2022/04/02 03:19:13;;;;;;;0.00;0.00;;;3.50;91.80;;;;;;4137461;28;20046;-71
2022/04/02 03:21:35;;;;;;;0.00;0.00;;;3.60;91.80;;;;;;4136850;28;20084;-70
2022/04/02 03:23:57;;;;;;;0.00;0.00;;;3.60;91.70;;;;;;4150248;28;20038;-71
2022/04/02 03:26:29;;;;;;;0.00;0.00;;;3.60;91.50;;;;;;4150054;28;20045;-71
2022/04/02 03:29:01;;;;;;;0.00;0.00;;;3.60;91.70;;;;;;4149803;28;20077;-69
2022/04/02 03:31:23;;;;;;;0.00;0.00;;;3.60;91.60;;;;;;4150209;28;20059;-69
2022/04/02 03:33:49;;;;;;;0.00;0.00;;;3.60;91.80;;;;;;4150165;28;20111;-71
2022/04/02 03:36:11;;;;;;;0.00;0.00;;;3.40;91.60;;;;;;4150079;28;20049;-69
2022/04/02 03:38:38;;;;;;;0.00;0.00;;;3.40;91.70;;;;;;4150091;28;20114;-71
2022/04/02 03:41:06;;;;;;;0.00;0.00;;;3.20;91.70;;;;;;4163303;28;20045;-70
2022/04/02 03:43:31;;;;;;;0.00;0.00;;;3.20;91.90;;;;;;4163741;28;20050;-72
2022/04/02 03:47:08;;;;;;;0.00;0.00;;;3.20;91.90;;;;;;4136326;28;20046;-69
2022/04/02 03:48:38;;;;;;;0.00;0.00;;;3.10;91.80;;;;;;4149917;28;20057;-70
2022/04/02 03:51:02;;;;;;;0.00;0.00;;;3.00;91.70;;;;;;4149892;28;20042;-69
2022/04/02 03:53:24;;;;;;;0.00;0.00;;;2.90;92.10;;;;;;4164160;28;20136;-70
2022/04/02 03:55:57;;;;;;;0.00;0.00;;;2.90;92.20;;;;;;4136355;28;20049;-69
2022/04/02 03:58:34;;;;;;;0.00;0.00;;;2.90;92.10;;;;;;4136436;28;20185;-70
2022/04/02 04:01:02;;;;;;;0.00;0.00;;;2.80;91.90;;;;;;4149457;28;20050;-70
2022/04/02 04:03:29;;;;;;;0.00;0.00;;;2.80;92.40;;;;;;4165353;28;20144;-69
2022/04/02 04:05:51;;;;;;;0.00;0.00;;;2.90;92.40;;;;;;4169162;28;20459;-70
2022/04/02 04:08:13;;;;;;;0.00;0.00;;;3.00;92.20;;;;;;4155485;28;20058;-69
2022/04/02 04:10:36;;;;;;;0.00;0.00;;;3.10;92.20;;;;;;4168931;28;20505;-69
2022/04/02 04:12:58;;;;;;;0.00;0.00;;;3.00;92.00;;;;;;4168626;28;20472;-71
2022/04/02 04:15:24;;;;;;;0.00;0.00;;;3.00;92.20;;;;;;4155625;28;20060;-70
2022/04/02 04:17:48;;;;;;;0.00;0.00;;;3.10;92.40;;;;;;4155500;28;20054;-70
2022/04/02 04:20:13;;;;;;;0.00;0.00;;;3.20;92.30;;;;;;4155306;28;20053;-70
2022/04/02 04:22:41;;;;;;;0.00;0.00;;;3.30;92.10;;;;;;4168653;28;20079;-69
2022/04/02 04:25:10;;;;;;;0.00;0.00;;;3.30;92.00;;;;;;4154947;28;20041;-69
2022/04/02 04:27:33;;;;;;;0.00;0.00;;;3.20;92.20;;;;;;4154910;28;20053;-70
2022/04/02 04:29:58;;;;;;;0.00;0.00;;;3.30;91.90;;;;;;4155036;28;20186;-69
2022/04/02 04:32:22;;;;;;;0.00;0.00;;;3.30;91.80;;;;;;4155032;28;20058;-70
2022/04/02 04:34:44;;;;;;;0.00;0.00;;;3.20;91.80;;;;;;4154735;28;20555;-70
2022/04/02 04:37:07;;;;;;;0.00;0.00;;;3.20;92.00;;;;;;4155007;28;20048;-73
2022/04/02 04:39:39;;;;;;;0.00;0.00;;;3.20;91.90;;;;;;4168864;28;20069;-71
2022/04/02 04:42:03;;;;;;;0.00;0.00;;;3.20;92.00;;;;;;4141567;28;20401;-68
2022/04/02 04:44:30;;;;;;;0.00;0.00;;;3.20;91.80;;;;;;4141349;28;20499;-69
2022/04/02 04:46:54;;;;;;;0.00;0.00;;;3.20;91.90;;;;;;4154549;28;20046;-70
2022/04/02 04:49:19;;;;;;;0.00;0.00;;;3.20;91.70;;;;;;4168648;28;20356;-71
2022/04/02 04:51:58;;;;;;;0.00;0.00;;;3.20;91.80;;;;;;4141398;28;20073;-71
2022/04/02 04:54:22;;;;;;;0.00;0.00;;;3.20;91.70;;;;;;4141409;28;20046;-71
2022/04/02 04:56:46;;;;;;;0.00;0.00;;;3.30;91.60;;;;;;4154151;28;20076;-68
2022/04/02 04:59:13;;;;;;;0.00;0.00;;;3.30;91.10;;;;;;4141474;28;20074;-68
2022/04/02 05:01:36;;;;;;;0.00;0.00;;;3.30;91.50;;;;;;4168756;28;20037;-69
2022/04/02 05:04:01;;;;;;;0.00;0.00;;;3.30;91.40;;;;;;4141286;28;20469;-71
2022/04/02 05:06:28;;;;;;;0.00;0.00;;;3.30;91.40;;;;;;4141078;28;20448;-70
2022/04/02 05:08:51;;;;;;;0.00;0.00;;;3.30;91.20;;;;;;4140557;28;20137;-70
2022/04/02 05:11:16;;;;;;;0.00;0.00;;;3.30;91.50;;;;;;4155035;28;20053;-68
2022/04/02 05:13:43;;;;;;;0.00;0.00;;;3.30;91.50;;;;;;4154606;28;20056;-71
2022/04/02 05:16:10;;;;;;;0.00;0.00;;;3.30;91.40;;;;;;4137732;28;20113;-72
2022/04/02 05:18:33;;;;;;;0.00;0.00;;;3.30;91.30;;;;;;4165915;28;20440;-71
2022/04/02 05:20:58;;;;;;;0.00;0.00;;;3.30;91.70;;;;;;4138406;28;20060;-71
2022/04/02 05:23:27;;;;;;;0.00;0.00;;;3.30;91.50;;;;;;4152236;28;20061;-68
2022/04/02 05:25:52;;;;;;;0.00;0.00;;;3.20;91.60;;;;;;4152058;28;20050;-70
2022/04/02 05:28:19;;;;;;;0.00;0.00;;;3.20;91.70;;;;;;4152057;28;20057;-69
2022/04/02 05:30:42;;;;;;;0.00;0.00;;;3.30;91.90;;;;;;4137688;28;20100;-69
2022/04/02 05:33:05;;;;;;;0.00;0.00;;;3.30;91.80;;;;;;4138270;28;20054;-71
2022/04/02 05:35:48;;;;;;;0.00;0.00;;;3.30;91.70;;;;;;4151610;28;20033;-69
2022/04/02 05:38:09;;;;;;;0.00;0.00;;;3.40;91.80;;;;;;4165581;28;20083;-68
2022/04/02 05:40:36;;;;;;;0.00;0.00;;;3.40;91.70;;;;;;4138107;28;20504;-71
2022/04/02 05:42:58;;;;;;;0.00;0.00;;;3.50;91.60;;;;;;4151331;28;20050;-71
2022/04/02 05:45:23;;;;;;;0.00;0.00;;;3.50;91.50;;;;;;4137866;28;20046;-71
2022/04/02 05:47:52;;;;;;;0.00;0.00;;;3.50;91.40;;;;;;4151466;28;20081;-67
2022/04/02 05:50:15;;;;;;;0.00;0.00;;;3.50;91.30;;;;;;4165138;28;20099;-69
2022/04/02 05:53:00;;;;;;;0.00;0.00;;;3.50;91.30;;;;;;4150846;28;20050;-71
2022/04/02 05:55:22;;;;;;;0.00;0.00;;;3.40;91.60;;;;;;4165260;28;20073;-69
2022/04/02 05:57:48;;;;;;;0.00;0.00;;;3.40;91.70;;;;;;4134891;28;20046;-72
2022/04/02 06:00:12;;;;;;;0.00;0.00;;;3.40;91.70;;;;;;4148599;28;20096;-69
2022/04/02 06:02:43;;;;;;;0.00;0.00;;;3.40;91.70;;;;;;4122607;28;20042;-70
2022/04/02 06:05:07;;;;;;;0.00;0.00;;;3.50;91.60;;;;;;4148119;28;20046;-70
2022/04/02 06:07:32;;;;;;;0.00;0.00;;;3.60;91.60;;;;;;4162291;28;20044;-71
2022/04/02 06:09:57;;;;;;;0.00;0.00;;;3.60;91.50;;;;;;4148384;28;20045;-71
2022/04/02 06:12:24;;;;;;;0.00;0.00;;;3.60;91.60;;;;;;4149147;28;20038;-71
2022/04/02 06:14:48;;;;;;;0.00;0.00;;;3.60;91.50;;;;;;4134706;28;20495;-72
2022/04/02 06:17:13;;;;;;;0.00;0.00;;;3.50;91.50;;;;;;4162780;28;20080;-70
2022/04/02 06:19:37;;;;;;;0.00;0.00;;;3.60;91.60;;;;;;4149111;28;20120;-71
2022/04/02 06:22:06;;;;;;;0.00;0.00;;;3.60;91.60;;;;;;4148754;28;20140;-71
2022/04/02 06:24:28;;;;;;;0.00;0.00;;;3.70;91.40;;;;;;4148875;28;20046;-69
2022/04/02 06:26:50;;;;;;;0.00;0.00;;;3.70;91.40;;;;;;4133548;28;20050;-71
2022/04/02 06:29:17;;;;;;;0.00;0.00;;;3.60;91.30;;;;;;4134998;28;20050;-71
2022/04/02 06:31:41;;;;;;;0.00;0.00;;;3.60;91.50;;;;;;4121487;28;20421;-71
2022/04/02 06:34:06;;;;;;;0.00;0.00;;;3.60;91.40;;;;;;4121659;28;20046;-70
2022/04/02 06:36:30;;;;;;;0.00;0.00;;;3.70;91.30;;;;;;4134623;28;20438;-68
2022/04/02 06:38:52;;;;;;;0.00;0.00;;;3.70;91.40;;;;;;4134385;28;20485;-71
2022/04/02 06:41:14;;;;;;;0.00;0.00;;;3.80;91.20;;;;;;4135046;28;20043;-71
2022/04/02 06:43:36;;;;;;;0.00;0.00;;;3.80;91.20;;;;;;4148507;28;20045;-68
2022/04/02 06:45:59;;;;;;;0.00;0.00;;;3.90;91.00;;;;;;4134844;28;20054;-69
2022/04/02 06:48:24;;;;;;;0.00;0.00;;;3.70;91.00;;;;;;4162261;28;20892;-72
2022/04/02 06:50:48;;;;;;;0.00;0.00;;;3.60;91.30;;;;;;4147800;28;20742;-69
2022/04/02 06:53:10;;;;;;;0.00;0.00;;;3.70;91.60;;;;;;4134655;28;20089;-73
2022/04/02 06:55:36;;;;;;;0.00;0.00;;;3.80;91.30;;;;;;4161768;28;20049;-70
2022/04/02 06:57:59;;;;;;;0.00;0.00;;;3.80;91.60;;;;;;4148127;28;20184;-71
2022/04/02 07:00:21;;;;;;;0.00;0.00;;;3.80;91.50;;;;;;4161888;28;20045;-70
2022/04/02 07:02:44;;;;;;;0.00;0.00;;;4.00;91.50;;;;;;4134269;28;20042;-70
2022/04/02 07:05:06;;;;;;;0.00;0.00;;;4.10;91.30;;;;;;4135783;28;20045;-70
2022/04/02 07:07:28;;;;;;;0.00;0.00;;;4.00;91.30;;;;;;4162113;28;20538;-71
2022/04/02 07:09:58;;;;;;;0.00;0.00;;;4.00;91.30;;;;;;4148349;28;20372;-71
2022/04/02 07:12:22;;;;;;;0.00;0.00;;;4.10;91.20;;;;;;4148306;28;20058;-69
2022/04/02 07:14:44;;;;;;;0.00;0.00;;;4.00;91.20;;;;;;4148097;28;20053;-69
2022/04/02 07:17:08;;;;;;;0.00;0.00;;;4.10;91.20;;;;;;4162047;28;20127;-71
2022/04/02 07:19:36;;;;;;;0.00;0.00;;;3.90;91.40;;;;;;4162075;28;20076;-70
2022/04/02 07:22:00;;;;;;;0.00;0.00;;;4.10;91.20;;;;;;4148244;28;20452;-72
2022/04/02 07:24:24;;;;;;;0.00;0.00;;;4.00;91.00;;;;;;4148214;28;20436;-71
2022/04/02 07:26:48;;;;;;;0.00;0.00;;;4.00;91.30;;;;;;4134366;28;20046;-69
2022/04/02 07:29:11;;;;;;;0.00;0.00;;;4.00;91.20;;;;;;4134386;28;20067;-69
2022/04/02 07:31:35;;;;;;;0.00;0.00;;;4.00;91.10;;;;;;4121075;28;20043;-71
2022/04/02 07:33:59;;;;;;;0.00;0.00;;;4.10;91.30;;;;;;4161840;28;20053;-69
2022/04/02 07:36:37;;;;;;;0.00;0.00;;;4.20;91.10;;;;;;4134410;28;20058;-69
2022/04/02 07:39:23;;;;;;;0.00;0.00;;;4.10;91.00;;;;;;4147579;28;20050;-70
2022/04/02 07:42:20;;;;;;;0.00;0.00;;;4.00;91.30;;;;;;4134155;28;20050;-71
2022/04/02 07:44:55;;;;;;;0.00;0.00;;;3.90;91.40;;;;;;4147462;28;20439;-70
2022/04/02 07:47:26;;;;;;;0.00;0.00;;;4.00;91.50;;;;;;4147869;28;20042;-70
2022/04/02 07:49:58;;;;;;;0.00;0.00;;;4.00;91.50;;;;;;4148088;28;20104;-70
2022/04/02 07:52:22;;;;;;;0.00;0.00;;;4.00;91.60;;;;;;4161391;28;20111;-65
2022/04/02 07:54:52;;;;;;;0.00;0.00;;;4.10;91.60;;;;;;4147532;28;20746;-66
2022/04/02 07:57:15;;;;;;;0.00;0.00;;;4.10;91.70;;;;;;4155800;28;20081;-67
2022/04/02 07:59:48;;;;;;;0.00;0.00;;;4.10;91.70;;;;;;4121875;28;20054;-68
2022/04/02 08:05:05;;;;;;;0.00;0.00;;;4.10;92.10;;;;;;4147444;28;20049;-66
2022/04/02 08:07:32;;;;;;;0.00;0.00;;;3.90;92.10;;;;;;4147882;28;20081;-67
2022/04/02 08:09:55;;;;;;;0.00;0.00;;;3.90;92.00;;;;;;4161650;28;20060;-67
2022/04/02 08:12:17;;;;;;;0.00;0.00;;;3.80;92.20;;;;;;4147729;28;20180;-67
2022/04/02 08:14:40;;;;;;;0.00;0.00;;;4.00;92.10;;;;;;4161354;28;20068;-69
2022/04/02 08:17:10;;;;;;;0.00;0.00;;;4.00;92.40;;;;;;4147199;28;20046;-67
2022/04/02 08:19:36;;;;;;;0.00;0.00;;;4.10;92.20;;;;;;4161700;28;20156;-67
2022/04/02 08:21:58;;;;;;;0.00;0.00;;;4.30;92.00;;;;;;4147806;28;20050;-68
2022/04/02 08:24:20;;;;;;;0.00;0.00;;;4.10;91.90;;;;;;4133950;28;20517;-68
2022/04/02 08:26:44;;;;;;;0.00;0.00;;;4.30;91.90;;;;;;4133822;28;20042;-67
2022/04/02 08:29:09;;;;;;;0.00;0.00;;;4.30;91.60;;;;;;4147726;28;20050;-67
2022/04/02 08:31:36;;;;;;;0.00;0.00;;;4.40;91.50;;;;;;4161179;28;20399;-66
2022/04/02 08:34:27;;;;;;;0.00;0.00;;;4.50;91.50;;;;;;4161198;28;20041;-67
2022/04/02 08:37:02;;;;;;;0.00;0.00;;;4.40;91.40;;;;;;4133453;28;20133;-67
2022/04/02 08:39:53;;;;;;;0.00;0.00;;;4.50;91.30;;;;;;4161401;28;20069;-67
2022/04/02 08:42:52;;;;;;;0.00;0.00;;;4.50;91.50;;;;;;4134255;28;20079;-68
2022/04/02 08:45:38;;;;;;;0.00;0.00;;;4.40;91.50;;;;;;4161019;28;20414;-67
2022/04/02 08:48:27;;;;;;;0.00;0.00;;;4.50;91.40;;;;;;4147463;28;20045;-69
2022/04/02 08:51:14;;;;;;;0.00;0.00;;;4.50;91.40;;;;;;4148639;28;20124;-68
2022/04/02 08:53:54;;;;;;;0.00;0.00;;;4.50;91.60;;;;;;4164469;28;20062;-67
2022/04/02 08:56:22;;;;;;;0.00;0.00;;;4.50;91.60;;;;;;4165262;28;20467;-68
2022/04/02 08:59:00;;;;;;;0.00;0.00;;;4.50;91.50;;;;;;4166234;28;20046;-68
2022/04/02 09:01:27;;;;;;;0.00;0.00;;;4.50;90.90;;;;;;4166863;28;20054;-66
2022/04/02 09:04:01;;;;;;;0.00;0.00;;;4.30;91.40;;;;;;4153334;28;20049;-66
2022/04/02 09:06:42;;;;;;;0.00;0.00;;;4.20;91.80;;;;;;4152614;28;20073;-69
2022/04/02 09:09:13;;;;;;;0.00;0.00;;;4.50;91.80;;;;;;4166387;28;20104;-66
2022/04/02 09:12:22;;;;;;;0.00;0.00;;;4.50;91.40;;;;;;4139116;28;20289;-69
2022/04/02 09:15:15;;;;;;;0.00;0.00;;;4.40;91.60;;;;;;4145970;28;20065;-66
2022/04/02 09:17:50;;;;;;;0.00;0.00;;;4.30;91.40;;;;;;4166342;28;20388;-66
2022/04/02 09:20:57;;;;;;;0.00;0.00;;;4.30;91.60;;;;;;4138875;28;20381;-68
2022/04/02 09:24:05;;;;;;;0.00;0.00;;;4.20;91.70;;;;;;4102736;28;20339;-68
2022/04/02 09:26:57;;;;;;;0.00;0.00;;;4.40;91.50;;;;;;4100714;29;20047;-68
2022/04/02 09:29:25;;;;;;;;;;;4.50;91.70;;;;;;4138694;28;20100;-69
2022/04/02 09:31:53;;;;;;;0.00;0.00;;;4.60;91.30;;;;;;4166328;28;19925;-66
2022/04/02 09:34:49;;;;;;;0.00;0.00;;;4.70;91.20;;;;;;4152492;28;20145;-67
2022/04/02 09:37:32;;;;;;;0.00;0.00;;;4.80;90.90;;;;;;4165408;28;20045;-67
2022/04/02 09:40:11;;;;;;;0.00;0.00;;;4.50;90.80;;;;;;4152417;28;20042;-66
2022/04/02 09:42:44;;;;;;;0.00;0.00;;;4.40;91.00;;;;;;4152501;28;20180;-68
2022/04/02 09:45:09;;;;;;;0.00;0.00;;;4.50;91.00;;;;;;4165682;28;20050;-68
2022/04/02 09:47:49;;;;;;;0.00;0.00;;;4.50;91.00;;;;;;4152359;28;20057;-67
2022/04/02 09:50:15;;;;;;;0.00;0.00;;;4.70;90.80;;;;;;4175646;28;20100;-67
2022/04/02 09:52:43;;;;;;;0.00;0.00;;;4.60;90.60;;;;;;4140842;28;20489;-68
2022/04/02 09:55:24;;;;;;;0.00;0.00;;;4.50;90.60;;;;;;4181936;28;20442;-68
2022/04/02 09:58:27;;;;;;;0.00;0.00;;;4.50;90.80;;;;;;4168069;28;20581;-67
2022/04/02 10:01:02;;;;;;;0.00;0.00;;;4.60;90.60;;;;;;4154161;28;20432;-68
2022/04/02 10:03:53;;;;;;;0.00;0.00;;;4.70;91.00;;;;;;4155449;28;20065;-67
2022/04/02 10:06:21;;;;;;;0.00;0.00;;;4.90;90.70;;;;;;4168633;28;20111;-67
2022/04/02 10:09:09;;;;;;;0.00;0.00;;;4.80;90.40;;;;;;4167854;28;20053;-67
2022/04/02 10:11:38;;;;;;;0.00;0.00;;;4.60;90.70;;;;;;4155050;28;20120;-66
2022/04/02 10:14:03;;;;;;;0.00;0.00;;;4.50;90.60;;;;;;4155135;28;20115;-66
2022/04/02 10:16:32;;;;;;;0.00;0.00;;;4.60;90.90;;;;;;4154880;28;20535;-67
2022/04/02 10:18:56;;;;;;;0.00;0.00;;;4.70;90.60;;;;;;4167739;28;20460;-67
2022/04/02 10:21:19;;;;;;;0.00;0.00;;;4.60;90.30;;;;;;4154232;28;20042;-68
2022/04/02 10:23:52;;;;;;;0.00;0.00;;;4.60;90.60;;;;;;4153814;28;20096;-67
2022/04/02 10:26:24;;;;;;;0.00;0.00;;;4.80;90.30;;;;;;4140818;28;20053;-68
2022/04/02 10:28:55;;;;;;;0.00;0.00;;;4.90;90.40;;;;;;4167581;28;20088;-68
2022/04/02 10:31:37;;;;;;;0.00;0.00;;;5.00;90.10;;;;;;4168210;28;20049;-68
2022/04/02 10:34:16;;;;;;;0.00;0.00;;;5.00;90.40;;;;;;4154177;28;20077;-68
2022/04/02 10:36:47;;;;;;;;;;;5.00;90.20;;;;;;4140781;28;20060;-69
2022/04/02 10:39:09;;;;;;;0.00;0.00;;;5.10;90.00;;;;;;4167910;28;20287;-67
2022/04/02 10:41:43;;;;;;;0.00;0.00;;;4.90;89.80;;;;;;4154279;28;20125;-66
2022/04/02 10:44:08;;;;;;;;;;;4.90;89.40;;;;;;4168291;28;20045;-67
2022/04/02 10:46:36;;;;;;;0.00;0.00;;;5.00;90.00;;;;;;4167655;28;20458;-68
2022/04/02 10:49:00;;;;;;;0.00;0.00;;;4.90;89.30;;;;;;4167212;28;20067;-67
2022/04/02 10:51:27;;;;;;;0.00;0.00;;;4.80;88.90;;;;;;4167859;28;20103;-67
2022/04/02 10:53:58;;;;;;;0.00;0.00;;;4.90;89.10;;;;;;4167543;28;20045;-65
2022/04/02 10:56:27;;;;;;;0.00;0.00;;;4.80;88.40;;;;;;4167319;28;20045;-65
2022/04/02 10:58:54;;;;;;;0.00;0.00;;;4.80;89.20;;;;;;4153382;28;20068;-66
2022/04/02 11:01:22;;;;;;;0.00;0.00;;;4.90;88.70;;;;;;4140674;28;20045;-69
2022/04/02 11:03:58;;;;;;;0.00;0.00;;;4.50;89.00;;;;;;4167509;28;20045;-67
2022/04/02 11:06:46;;;;;;;0.00;0.00;;;4.30;90.30;;;;;;4154330;28;20037;-67
2022/04/02 11:09:36;;;;;;;0.00;0.00;;;4.60;90.20;;;;;;4166849;28;20045;-69
2022/04/02 11:12:26;;;;;;;0.00;0.00;;;4.80;89.90;;;;;;4167497;28;20045;-66
2022/04/02 11:14:52;;;;;;;0.00;0.00;;;5.00;89.80;;;;;;4153175;28;20057;-67
2022/04/02 11:17:28;;;;;;;0.00;0.00;;;5.00;90.00;;;;;;4153527;28;20129;-66
2022/04/02 11:20:08;;;;;;;0.00;0.00;;;5.10;88.30;;;;;;4167250;28;20076;-67
2022/04/02 11:22:57;;;;;;;0.00;0.00;;;5.10;88.00;;;;;;4153495;28;20164;-66
2022/04/02 11:25:25;;;;;;;0.00;0.00;;;5.00;88.80;;;;;;4153080;28;20062;-67
2022/04/02 11:27:50;;;;;;;0.00;0.00;;;4.90;89.60;;;;;;4153374;28;20053;-70
2022/04/02 11:30:12;;;;;;;0.00;0.00;;;5.10;90.00;;;;;;4167193;28;20387;-69
2022/04/02 11:32:43;;;;;;;0.00;0.00;;;5.30;87.80;;;;;;4166810;28;20049;-69
2022/04/02 11:35:19;;;;;;;0.00;0.00;;;5.10;87.70;;;;;;4152702;28;20041;-68
2022/04/02 11:38:12;;;;;;;0.00;0.00;;;5.20;88.20;;;;;;4153602;28;20495;-67
2022/04/02 11:40:40;;;;;;;0.00;0.00;;;5.00;89.30;;;;;;4153554;28;20447;-68
2022/04/02 11:43:05;;;;;;;0.00;0.00;;;5.10;89.10;;;;;;4153386;28;20057;-67
2022/04/02 11:45:35;;;;;;;0.00;0.00;;;5.00;88.10;;;;;;4153775;28;20045;-67
2022/04/02 11:48:08;;;;;;;0.00;0.00;;;4.90;88.40;;;;;;4139541;28;20083;-67
2022/04/02 11:50:34;;;;;;;0.00;0.00;;;5.00;89.30;;;;;;4153518;28;20053;-66
2022/04/02 11:52:59;;;;;;;0.00;0.00;;;5.10;88.50;;;;;;4152681;28;20050;-67
2022/04/02 11:55:26;;;;;;;0.00;0.00;;;5.10;88.80;;;;;;4153402;28;20575;-67
2022/04/02 11:57:59;;;;;;;0.00;0.00;;;5.30;89.30;;;;;;4166478;28;20111;-68
2022/04/02 12:00:26;;;;;;;0.00;0.00;;;5.40;89.30;;;;;;4139008;28;20085;-67
2022/04/02 12:02:51;;;;;;;0.00;0.00;;;5.50;89.50;;;;;;4152550;28;20092;-66
2022/04/02 12:05:14;;;;;;;0.00;0.00;;;5.70;88.80;;;;;;4166739;28;20049;-66
2022/04/02 12:07:45;;;;;;;0.00;0.00;;;5.80;88.70;;;;;;4166734;28;20415;-68
2022/04/02 12:10:28;;;;;;;0.00;0.00;;;5.90;88.70;;;;;;4166616;28;20077;-70
2022/04/02 12:12:52;;;;;;;0.00;0.00;;;5.90;87.60;;;;;;4152558;28;20092;-67
2022/04/02 12:15:18;;;;;;;0.00;0.00;;;5.90;87.00;;;;;;4152793;28;20062;-68
2022/04/02 12:17:45;;;;;;;0.00;0.00;;;6.00;86.10;;;;;;4166708;28;20119;-67
2022/04/02 12:20:16;;;;;;;0.00;0.00;;;5.90;85.50;;;;;;4153025;28;20489;-65
2022/04/02 12:22:49;;;;;;;0.00;0.00;;;5.90;85.20;;;;;;4166488;28;20063;-66
2022/04/02 12:25:15;;;;;;;0.00;0.00;;;5.80;85.70;;;;;;4141496;28;20069;-66
2022/04/02 12:27:40;;;;;;;0.00;0.00;;;5.60;85.70;;;;;;4169817;28;20128;-67
2022/04/02 12:30:07;;;;;;;0.00;0.00;;;5.60;86.60;;;;;;4169734;28;20064;-66
2022/04/02 12:32:31;;;;;;;0.00;0.00;;;5.60;85.90;;;;;;4156049;28;20128;-66
2022/04/02 12:34:59;;;;;;;0.00;0.00;;;5.70;86.10;;;;;;4169035;28;20049;-67
2022/04/02 12:37:21;;;;;;;0.00;0.00;;;5.70;85.40;;;;;;4169670;28;20050;-67
2022/04/02 12:39:43;;;;;;;0.00;0.00;;;5.40;84.80;;;;;;4155858;28;20054;-66
2022/04/02 12:42:05;;;;;;;0.00;0.00;;;5.40;85.80;;;;;;4155612;28;20049;-67
2022/04/02 12:44:28;;;;;;;0.00;0.00;;;5.30;86.50;;;;;;4169767;28;20045;-65
2022/04/02 12:47:06;;;;;;;0.00;0.00;;;5.40;86.60;;;;;;4155477;28;20108;-67
2022/04/02 12:49:35;;;;;;;0.00;0.00;;;5.40;86.80;;;;;;4155981;28;20077;-67
2022/04/02 12:52:13;;;;;;;0.00;0.00;;;5.50;87.00;;;;;;4169421;28;20065;-67
2022/04/02 12:54:38;;;;;;;0.00;0.00;;;5.40;86.10;;;;;;4155759;28;20288;-68
2022/04/02 12:57:13;;;;;;;0.00;0.00;;;5.30;87.00;;;;;;4152598;28;20061;-67
2022/04/02 12:59:42;;;;;;;0.00;0.00;;;5.30;86.60;;;;;;4153167;28;20069;-68
2022/04/02 13:02:08;;;;;;;0.00;0.00;;;5.10;86.30;;;;;;4148413;28;20096;-66
2022/04/02 13:04:34;;;;;;;0.00;0.00;;;5.00;87.00;;;;;;4152971;28;20054;-66
2022/04/02 13:07:03;;;;;;;0.00;0.00;;;5.10;87.00;;;;;;4153038;28;20464;-68
2022/04/02 13:09:33;;;;;;;0.00;0.00;;;5.00;86.60;;;;;;4139688;28;20052;-66
2022/04/02 13:12:05;;;;;;;0.00;0.00;;;5.00;87.40;;;;;;4153211;28;20073;-66
2022/04/02 13:14:31;;;;;;;0.00;0.00;;;4.90;86.90;;;;;;4153022;28;20530;-66